Asian Naga — 3FOV4 — position and weather

sailwx.info

Track history (hours):
 
Tides and Currents Weather Stations Pressure Air Temp Water Temp Dewpoint Dewpoint Depression Visibility Wind Speed Wind Dir Waves Ship Positions

Asian Naga

Last reported at 2017-Nov-28 08:34 UTC. Time now 2017-Dec-13 22:15 UTC.
Position N 34°53' E 140°11'.
Warning: this ship's position is 15 days out of date.

Length 124 m; draft 6.5 m.

Type: Cargo ship. MMSI: 357353000.

Date/timePositionNaut miles runAvg speedWind from/ knotsBaromVisibWave heightAir tempDewpointWater temp
2017-Nov-28 08:34N 34°53' E 140°11'113.8
2017-Nov-28 08:29N 34°53' E 140°10'1912.6
2017-Nov-28 07:01N 34°51' E 139°47'114.1
2017-Nov-28 06:56N 34°52' E 139°46'613.9
2017-Nov-28 06:30N 34°58' E 139°44'612.7
2017-Nov-28 06:00N 35°04' E 139°43'713.4
2017-Nov-28 05:30N 35°11' E 139°46'1111.3
2017-Nov-28 04:31N 35°22' E 139°42'612.5
2017-Nov-28 04:01N 35°27' E 139°46'612.5
2017-Nov-28 03:31N 35°32' E 139°51'611.4
2017-Nov-28 03:00N 35°36' E 139°46'0 0.6
2017-Nov-28 02:29N 35°36' E 139°46'0 0.0
2017-Nov-28 01:50N 35°36' E 139°46'0 0.0
2017-Nov-28 01:29N 35°36' E 139°46'0 0.0
2017-Nov-28 00:53N 35°36' E 139°46'0 0.0
2017-Nov-28 00:23N 35°36' E 139°46'0 0.0
2017-Nov-27 23:59N 35°36' E 139°46'0 0.0
2017-Nov-27 23:23N 35°36' E 139°46'0 0.0
2017-Nov-27 22:59N 35°36' E 139°46'0 0.0
2017-Nov-27 22:26N 35°36' E 139°46'0 0.0
2017-Nov-27 21:59N 35°36' E 139°46'0 0.1
2017-Nov-27 21:30N 35°36' E 139°46'3 6.4
2017-Nov-27 21:00N 35°34' E 139°49'1 2.6
2017-Nov-27 20:31N 35°34' E 139°51'0 0.0
2017-Nov-27 19:58N 35°34' E 139°51'0 0.0
2017-Nov-27 19:28N 35°34' E 139°51'0 0.0
2017-Nov-27 18:59N 35°34' E 139°51'0 0.1
2017-Nov-27 18:28N 35°34' E 139°50'0 0.1
2017-Nov-27 17:59N 35°34' E 139°51'0 0.0
2017-Nov-27 17:28N 35°34' E 139°51'0 0.0
2017-Nov-27 16:59N 35°34' E 139°51'0 0.0
2017-Nov-27 16:28N 35°34' E 139°51'0 0.0
2017-Nov-27 15:59N 35°34' E 139°51'0 0.1
2017-Nov-27 15:29N 35°34' E 139°50'0 0.0
2017-Nov-27 14:58N 35°34' E 139°50'0 0.0
2017-Nov-27 14:29N 35°34' E 139°50'0 0.0
2017-Nov-27 13:58N 35°34' E 139°50'0 0.0
2017-Nov-27 13:29N 35°34' E 139°50'0 0.0
2017-Nov-27 12:58N 35°34' E 139°50'0 0.1
2017-Nov-27 12:28N 35°34' E 139°50'0 0.0
2017-Nov-27 11:58N 35°34' E 139°50'0 0.0
2017-Nov-27 11:28N 35°34' E 139°50'0 0.0
2017-Nov-27 10:52N 35°34' E 139°50'0 0.0
2017-Nov-27 10:28N 35°34' E 139°50'0 0.0
2017-Nov-27 09:58N 35°34' E 139°50'0 0.0
2017-Nov-27 09:28N 35°34' E 139°50'1 1.9
2017-Nov-27 09:01N 35°33' E 139°51'5 9.7
2017-Nov-27 08:30N 35°28' E 139°51'611.2
2017-Nov-27 08:00N 35°24' E 139°46'611.3
2017-Nov-27 07:30N 35°19' E 139°44'611.4
2017-Nov-27 07:00N 35°14' E 139°47'612.0
2017-Nov-27 06:30N 35°08' E 139°46'611.5
2017-Nov-27 06:00N 35°03' E 139°44'611.3
2017-Nov-27 05:30N 34°58' E 139°41'510.9
2017-Nov-27 05:00N 34°53' E 139°38'510.3
2017-Nov-27 04:30N 34°48' E 139°35'610.5
2017-Nov-27 03:53N 34°42' E 139°31'511.1
2017-Nov-27 03:27N 34°38' E 139°28'511.4
2017-Nov-27 02:59N 34°36' E 139°22'611.4
2017-Nov-27 02:28N 34°34' E 139°15'511.3
2017-Nov-27 01:59N 34°32' E 139°09'611.2
2017-Nov-27 01:29N 34°30' E 139°03'511.0
2017-Nov-27 01:00N 34°28' E 138°57'1010.7
2017-Nov-27 00:02N 34°25' E 138°45'410.7
2017-Nov-26 23:38N 34°24' E 138°40'110.4
2017-Nov-26 23:30N 34°23' E 138°38'610.8
2017-Nov-26 22:59N 34°21' E 138°32'511.4
2017-Nov-26 22:31N 34°19' E 138°26'612.1
2017-Nov-26 22:00N 34°16' E 138°19'712.3
2017-Nov-26 21:26N 34°13' E 138°12'31411.1
2017-Nov-25 17:14N 33°15' E 132°01'411.9
2017-Nov-25 16:56N 33°18' E 131°59'511.5
2017-Nov-25 16:30N 33°23' E 131°56'811.7
2017-Nov-25 15:50N 33°30' E 131°52'411.7
2017-Nov-25 15:30N 33°33' E 131°50'611.4
2017-Nov-25 15:00N 33°38' E 131°47'611.4
2017-Nov-25 14:30N 33°44' E 131°45'510.6
2017-Nov-25 14:00N 33°46' E 131°39'611.7
2017-Nov-25 13:30N 33°48' E 131°32'611.8
2017-Nov-25 13:00N 33°49' E 131°25'611.7
2017-Nov-25 12:30N 33°50' E 131°19'611.7
2017-Nov-25 12:00N 33°51' E 131°12'611.7
2017-Nov-25 11:30N 33°55' E 131°06'612.0
2017-Nov-25 11:00N 33°58' E 131°00'612.4
2017-Nov-25 10:30N 33°54' E 130°55'611.4
2017-Nov-25 10:00N 33°58' E 130°50'4 7.3
2017-Nov-25 09:30N 34°01' E 130°47'5 9.9
2017-Nov-25 09:00N 33°56' E 130°46'0 0.3
2017-Nov-25 08:29N 33°56' E 130°46'  
2017-Nov-20 00:30N 35°36' E 139°46'0 0.0
2017-Nov-19 23:57N 35°36' E 139°46'0 0.0
2017-Nov-19 23:27N 35°36' E 139°46'0 0.0
2017-Nov-19 22:36N 35°36' E 139°46'0 0.1
2017-Nov-19 22:30N 35°36' E 139°46'0 0.0
2017-Nov-19 22:00N 35°36' E 139°46'0 0.0
2017-Nov-19 20:57N 35°36' E 139°46'0 0.0
2017-Nov-19 20:30N 35°36' E 139°46'0 0.2
2017-Nov-19 20:01N 35°36' E 139°46'3 5.3
2017-Nov-19 19:31N 35°34' E 139°48'611.7
2017-Nov-19 19:01N 35°29' E 139°52'612.6
2017-Nov-19 18:31N 35°25' E 139°47'612.7
2017-Nov-19 18:01N 35°19' E 139°44'612.7
2017-Nov-19 17:30N 35°13' E 139°47'610.9
2017-Nov-19 17:00N 35°08' E 139°47'611.3
2017-Nov-19 16:30N 35°02' E 139°44'611.4
2017-Nov-19 16:00N 34°57' E 139°43'611.4
2017-Nov-19 15:30N 34°51' E 139°44'7 9.6
2017-Nov-19 14:49N 34°45' E 139°40'  
Track history (hours):
 
Tides and Currents Weather Stations Pressure Air Temp Water Temp Dewpoint Dewpoint Depression Visibility Wind Speed Wind Dir Waves Ship Positions

Asian Naga

Last reported at 2017-Nov-28 08:34 UTC. Time now 2017-Dec-13 22:15 UTC.
Position N 34°53' E 140°11'.
Warning: this ship's position is 15 days out of date.

Length 124 m; draft 6.5 m.

Type: Cargo ship. MMSI: 357353000.

Date/timePositionNaut miles runAvg speedWind from/ knotsBaromVisibWave heightAir tempDewpointWater temp
2017-Nov-28 08:34N 34°53' E 140°11'113.8
2017-Nov-28 08:29N 34°53' E 140°10'1912.6
2017-Nov-28 07:01N 34°51' E 139°47'114.1
2017-Nov-28 06:56N 34°52' E 139°46'613.9
2017-Nov-28 06:30N 34°58' E 139°44'612.7
2017-Nov-28 06:00N 35°04' E 139°43'713.4
2017-Nov-28 05:30N 35°11' E 139°46'1111.3
2017-Nov-28 04:31N 35°22' E 139°42'612.5
2017-Nov-28 04:01N 35°27' E 139°46'612.5
2017-Nov-28 03:31N 35°32' E 139°51'611.4
2017-Nov-28 03:00N 35°36' E 139°46'0 0.6
2017-Nov-28 02:29N 35°36' E 139°46'0 0.0
2017-Nov-28 01:50N 35°36' E 139°46'0 0.0
2017-Nov-28 01:29N 35°36' E 139°46'0 0.0
2017-Nov-28 00:53N 35°36' E 139°46'0 0.0
2017-Nov-28 00:23N 35°36' E 139°46'0 0.0
2017-Nov-27 23:59N 35°36' E 139°46'0 0.0
2017-Nov-27 23:23N 35°36' E 139°46'0 0.0
2017-Nov-27 22:59N 35°36' E 139°46'0 0.0
2017-Nov-27 22:26N 35°36' E 139°46'0 0.0
2017-Nov-27 21:59N 35°36' E 139°46'0 0.1
2017-Nov-27 21:30N 35°36' E 139°46'3 6.4
2017-Nov-27 21:00N 35°34' E 139°49'1 2.6
2017-Nov-27 20:31N 35°34' E 139°51'0 0.0
2017-Nov-27 19:58N 35°34' E 139°51'0 0.0
2017-Nov-27 19:28N 35°34' E 139°51'0 0.0
2017-Nov-27 18:59N 35°34' E 139°51'0 0.1
2017-Nov-27 18:28N 35°34' E 139°50'0 0.1
2017-Nov-27 17:59N 35°34' E 139°51'0 0.0
2017-Nov-27 17:28N 35°34' E 139°51'0 0.0
2017-Nov-27 16:59N 35°34' E 139°51'0 0.0
2017-Nov-27 16:28N 35°34' E 139°51'0 0.0
2017-Nov-27 15:59N 35°34' E 139°51'0 0.1
2017-Nov-27 15:29N 35°34' E 139°50'0 0.0
2017-Nov-27 14:58N 35°34' E 139°50'0 0.0
2017-Nov-27 14:29N 35°34' E 139°50'0 0.0
2017-Nov-27 13:58N 35°34' E 139°50'0 0.0
2017-Nov-27 13:29N 35°34' E 139°50'0 0.0
2017-Nov-27 12:58N 35°34' E 139°50'0 0.1
2017-Nov-27 12:28N 35°34' E 139°50'0 0.0
2017-Nov-27 11:58N 35°34' E 139°50'0 0.0
2017-Nov-27 11:28N 35°34' E 139°50'0 0.0
2017-Nov-27 10:52N 35°34' E 139°50'0 0.0
2017-Nov-27 10:28N 35°34' E 139°50'0 0.0
2017-Nov-27 09:58N 35°34' E 139°50'0 0.0
2017-Nov-27 09:28N 35°34' E 139°50'1 1.9
2017-Nov-27 09:01N 35°33' E 139°51'5 9.7
2017-Nov-27 08:30N 35°28' E 139°51'611.2
2017-Nov-27 08:00N 35°24' E 139°46'611.3
2017-Nov-27 07:30N 35°19' E 139°44'611.4
2017-Nov-27 07:00N 35°14' E 139°47'612.0
2017-Nov-27 06:30N 35°08' E 139°46'611.5
2017-Nov-27 06:00N 35°03' E 139°44'611.3
2017-Nov-27 05:30N 34°58' E 139°41'510.9
2017-Nov-27 05:00N 34°53' E 139°38'510.3
2017-Nov-27 04:30N 34°48' E 139°35'610.5
2017-Nov-27 03:53N 34°42' E 139°31'511.1
2017-Nov-27 03:27N 34°38' E 139°28'511.4
2017-Nov-27 02:59N 34°36' E 139°22'611.4
2017-Nov-27 02:28N 34°34' E 139°15'511.3
2017-Nov-27 01:59N 34°32' E 139°09'611.2
2017-Nov-27 01:29N 34°30' E 139°03'511.0
2017-Nov-27 01:00N 34°28' E 138°57'1010.7
2017-Nov-27 00:02N 34°25' E 138°45'410.7
2017-Nov-26 23:38N 34°24' E 138°40'110.4
2017-Nov-26 23:30N 34°23' E 138°38'610.8
2017-Nov-26 22:59N 34°21' E 138°32'511.4
2017-Nov-26 22:31N 34°19' E 138°26'612.1
2017-Nov-26 22:00N 34°16' E 138°19'712.3
2017-Nov-26 21:26N 34°13' E 138°12'31411.1
2017-Nov-25 17:14N 33°15' E 132°01'411.9
2017-Nov-25 16:56N 33°18' E 131°59'511.5
2017-Nov-25 16:30N 33°23' E 131°56'811.7
2017-Nov-25 15:50N 33°30' E 131°52'411.7
2017-Nov-25 15:30N 33°33' E 131°50'611.4
2017-Nov-25 15:00N 33°38' E 131°47'611.4
2017-Nov-25 14:30N 33°44' E 131°45'510.6
2017-Nov-25 14:00N 33°46' E 131°39'611.7
2017-Nov-25 13:30N 33°48' E 131°32'611.8
2017-Nov-25 13:00N 33°49' E 131°25'611.7
2017-Nov-25 12:30N 33°50' E 131°19'611.7
2017-Nov-25 12:00N 33°51' E 131°12'611.7
2017-Nov-25 11:30N 33°55' E 131°06'612.0
2017-Nov-25 11:00N 33°58' E 131°00'612.4
2017-Nov-25 10:30N 33°54' E 130°55'611.4
2017-Nov-25 10:00N 33°58' E 130°50'4 7.3
2017-Nov-25 09:30N 34°01' E 130°47'5 9.9
2017-Nov-25 09:00N 33°56' E 130°46'0 0.3
2017-Nov-25 08:29N 33°56' E 130°46'  
2017-Nov-20 00:30N 35°36' E 139°46'0 0.0
2017-Nov-19 23:57N 35°36' E 139°46'0 0.0
2017-Nov-19 23:27N 35°36' E 139°46'0 0.0
2017-Nov-19 22:36N 35°36' E 139°46'0 0.1
2017-Nov-19 22:30N 35°36' E 139°46'0 0.0
2017-Nov-19 22:00N 35°36' E 139°46'0 0.0
2017-Nov-19 20:57N 35°36' E 139°46'0 0.0
2017-Nov-19 20:30N 35°36' E 139°46'0 0.2
2017-Nov-19 20:01N 35°36' E 139°46'3 5.3
2017-Nov-19 19:31N 35°34' E 139°48'611.7
2017-Nov-19 19:01N 35°29' E 139°52'612.6
2017-Nov-19 18:31N 35°25' E 139°47'612.7
2017-Nov-19 18:01N 35°19' E 139°44'612.7
2017-Nov-19 17:30N 35°13' E 139°47'610.9
2017-Nov-19 17:00N 35°08' E 139°47'611.3
2017-Nov-19 16:30N 35°02' E 139°44'611.4
2017-Nov-19 16:00N 34°57' E 139°43'611.4
2017-Nov-19 15:30N 34°51' E 139°44'7 9.6
2017-Nov-19 14:49N 34°45' E 139°40'  

Dump ship's entire track history